Stinson Municipal Airport
KSSF : now visible

Airfield :











YOU CAN JOIN US ON...

 
LOGIN :

Register | Disclaimer

   EN    FR    IT 

 









Legend :    VFR   Marginal VFR   IFR   Intensive IFR   Very Intensive IFR
Visi :
Ceiling :
>= 8 km
>= 3000ft
5 to 8 km
1000 to 3000 ft
1500m to 5 km
500 to 1000 ft
800 to 1500m
200 to 500 ft
< 800m
< 200 ft
Symbols :   Thunderstorms  Fog  Heavy snow  Heavy precipitations  Wind > 20 kt






- Airport Elevation : 577 ft


KSSF - Stinson Municipal

CURRENT METAR :
  • 221553Z 09006KT 10SM CLR 22/02 A3020 RMK AO2 SLP221 T02220017

EXPIRED METARs :
  • 221453Z 02004KT 10SM CLR 20/03 A3019 RMK AO2 SLP216 T02000033 53023
  • 221353Z 01006KT 10SM CLR 16/05 A3016 RMK AO2 SLP208 T01610050

TAF KSSF
Valid from the 22 at 12:00 until the 23 at 12:00 UTC


221127Z 2212/2312 02005KT P6SM SKC
FM221800 09009KT P6SM SKC
FM230100 13004KT P6SM SKC



MET'MAP, your aeronautical weather chart ! - Copyright ORBIFLY December 2007 - Disclaimer

ORBIFLY MET'MAP TEAM :

Programming & Development : Alexandra Zaïnal
Concept & Development : Baudouin d'Aumeries
Co-Development & Prog : Marc-Olivier Méhu
Technical & hardware support : Manuel Goepfert

Contact : metmap@orbifly.com




SOURCES & CREDITS :

   NOAA       Earth
Advisory